Home > Products > Valid Products > TAF

000
FTUS43 KDTX 252320
TAFDTW
TAF
KDTW 252320Z 2600/2706 28014KT P6SM SKC
     FM260300 27009KT P6SM SKC
     FM261600 30012KT P6SM SKC
     FM270000 24006KT P6SM SKC=



000
FTUS43 KDTX 252320
TAFMBS
TAF
KMBS 252320Z 2600/2624 28014KT P6SM SKC
     FM260300 27010KT P6SM SKC
     FM261600 29012KT P6SM SKC=



000
FTUS43 KDTX 252320
TAFFNT
TAF
KFNT 252320Z 2600/2624 28012KT P6SM SKC
     FM260300 27008KT P6SM SKC
     FM261600 30012KT P6SM SKC=



000
FTUS43 KDTX 252320
TAFDET
TAF
KDET 252320Z 2600/2624 28012KT P6SM SKC
     FM260300 27008KT P6SM SKC
     FM261600 30012KT P6SM SKC=



000
FTUS43 KDTX 252049 AAA
TAFDTW
TAF AMD
KDTW 252049Z 2521/2624 27016G29KT P6SM SKC
     FM260000 29012KT P6SM SKC
     FM260300 27006KT P6SM SKC
     FM261500 30012KT P6SM FEW050=



000
FTUS43 KDTX 251738
TAFDET
TAF
KDET 251738Z 2518/2618 28015G23KT P6SM SCT025
     FM252000 29015G25KT P6SM FEW040
     FM260000 29012KT P6SM SKC
     FM260300 27006KT P6SM SKC=



000
FTUS43 KDTX 251738
TAFFNT
TAF
KFNT 251738Z 2518/2618 29015G25KT P6SM FEW040
     FM260000 29012KT P6SM SKC
     FM260300 27006KT P6SM SKC=



000
FTUS43 KDTX 251738
TAFMBS
TAF
KMBS 251738Z 2518/2618 29015G25KT P6SM FEW040
     FM260000 29012KT P6SM SKC
     FM260300 27006KT P6SM SKC=



000
FTUS43 KDTX 251738
TAFDTW
TAF
KDTW 251738Z 2518/2624 27015G23KT P6SM SCT025
     FM252000 28015G25KT P6SM FEW040
     FM260000 29012KT P6SM SKC
     FM260300 27006KT P6SM SKC
     FM261500 30012KT P6SM FEW050=



000
FTUS43 KDTX 251738
TAFDET
TAF
KDET 251738Z 2518/2618 28015G23KT P6SM SCT025
     FM252000 29015G25KT P6SM FEW040
     FM260000 29012KT P6SM SKC
     FM260300 27006KT P6SM SKC=



000
FTUS43 KDTX 251738
TAFDTW
TAF
KDTW 251738Z 2518/2624 27015G23KT P6SM SCT025
     FM252000 28015G25KT P6SM FEW040
     FM260000 29012KT P6SM SKC
     FM260300 27006KT P6SM SKC
     FM261500 30012KT P6SM FEW050=



000
FTUS43 KDTX 251738
TAFFNT
TAF
KFNT 251738Z 2518/2618 29015G25KT P6SM FEW040
     FM260000 29012KT P6SM SKC
     FM260300 27006KT P6SM SKC=



000
FTUS43 KDTX 251738
TAFMBS
TAF
KMBS 251738Z 2518/2618 29015G25KT P6SM FEW040
     FM260000 29012KT P6SM SKC
     FM260300 27006KT P6SM SKC=



000
FTUS43 KDTX 251511 AAA
TAFMBS
TAF AMD
KMBS 251511Z 2515/2612 28015G23KT P6SM SCT014 BKN022
     FM251700 28016G26KT P6SM FEW022
     FM260000 27011KT P6SM SKC=



000
FTUS43 KDTX 251511 AAA
TAFFNT
TAF AMD
KFNT 251511Z 2515/2612 29015G22KT 5SM HZ BKN012 OVC022
     FM251700 28015G25KT P6SM BKN022
     FM251900 27014G24KT P6SM SKC
     FM260000 27012KT P6SM SKC=



000
FTUS43 KDTX 251508 AAA
TAFDET
TAF AMD
KDET 251508Z 2515/2612 23013KT 6SM HZ BKN015 OVC025
     FM251700 27014G22KT P6SM BKN028
     FM251900 27015G24KT P6SM SKC
     FM260000 28010KT P6SM SKC=



000
FTUS43 KDTX 251507 AAA
TAFDTW
TAF AMD
KDTW 251507Z 2515/2618 23011KT 5SM BR OVC012
     FM251700 24014G22KT P6SM SCT015 BKN025
     FM251900 27015G24KT P6SM SKC
     FM260000 28010KT P6SM SKC=



000
FTUS43 KDTX 251135
TAFDTW
TAF
KDTW 251135Z 2512/2618 23010KT P6SM SCT025 OVC040
      TEMPO 2512/2513 3SM BR
     FM251600 27014G22KT P6SM BKN025
     FM251900 27015G24KT P6SM SKC
     FM260000 28010KT P6SM SKC=



000
FTUS43 KDTX 251135
TAFFNT
TAF
KFNT 251135Z 2512/2612 24011KT P6SM SCT025 OVC040
     FM251600 27015G25KT P6SM BKN020
     FM251900 28014G24KT P6SM SKC
     FM260000 27012KT P6SM SKC=



000
FTUS43 KDTX 251135
TAFDTW
TAF
KDTW 251135Z 2512/2618 23010KT P6SM SCT025 OVC040
      TEMPO 2512/2513 3SM BR
     FM251600 27014G22KT P6SM BKN025
     FM251900 27015G24KT P6SM SKC
     FM260000 28010KT P6SM SKC=



000
FTUS43 KDTX 251135
TAFMBS
TAF
KMBS 251135Z 2512/2612 24011KT P6SM SCT025 OVC040
     FM251500 27015G25KT P6SM BKN020
     FM251800 28016G26KT P6SM SKC
     FM260000 27011KT P6SM SKC=



000
FTUS43 KDTX 251135
TAFDET
TAF
KDET 251135Z 2512/2612 23010KT P6SM SCT025 OVC040
      TEMPO 2512/2513 5SM BR
     FM251600 27014G22KT P6SM BKN025
     FM251900 27015G24KT P6SM SKC
     FM260000 28010KT P6SM SKC=



000
FTUS43 KDTX 251135
TAFMBS
TAF
KMBS 251135Z 2512/2612 24011KT P6SM SCT025 OVC040
     FM251500 27015G25KT P6SM BKN020
     FM251800 28016G26KT P6SM SKC
     FM260000 27011KT P6SM SKC=



000
FTUS43 KDTX 251135
TAFDET
TAF
KDET 251135Z 2512/2612 23010KT P6SM SCT025 OVC040
      TEMPO 2512/2513 5SM BR
     FM251600 27014G22KT P6SM BKN025
     FM251900 27015G24KT P6SM SKC
     FM260000 28010KT P6SM SKC=



000
FTUS43 KDTX 251135
TAFFNT
TAF
KFNT 251135Z 2512/2612 24011KT P6SM SCT025 OVC040
     FM251600 27015G25KT P6SM BKN020
     FM251900 28014G24KT P6SM SKC
     FM260000 27012KT P6SM SKC=



000
FTUS43 KDTX 250954 AAA
TAFMBS
TAF AMD
KMBS 250954Z 2510/2606 22004KT 3SM BR SCT040 BKN100
      TEMPO 2510/2512 BKN060
     FM251200 24011KT P6SM SCT025 OVC040
     FM251500 27015G25KT P6SM BKN020
     FM251800 28016G26KT P6SM SKC
     FM260000 27011KT P6SM SKC=



000
FTUS43 KDTX 250953 AAA
TAFFNT
TAF AMD
KFNT 250953Z 2510/2606 22003KT 4SM BR SCT050 BKN100
      TEMPO 2510/2512 BKN050
     FM251200 24011KT P6SM SCT025 OVC040
     FM251600 27015G25KT P6SM BKN020
     FM251900 28014G24KT P6SM SKC
     FM260000 27012KT P6SM SKC=



000
FTUS43 KDTX 250950 AAA
TAFDET
TAF AMD
KDET 250950Z 2510/2606 21004KT 6SM BR SCT060 BKN100
     FM251200 23010KT P6SM SCT025 OVC040
     FM251600 27014G22KT P6SM BKN025
     FM251900 27015G24KT P6SM SKC
     FM260000 28010KT P6SM SKC=



000
FTUS43 KDTX 250834 AAA
TAFDTW
TAF AMD
KDTW 250834Z 2509/2612 21004KT 3SM BR SCT060 BKN150
     FM251200 23010KT P6SM SCT025 OVC040
     FM251600 27014G22KT P6SM BKN025
     FM251900 27015G24KT P6SM SKC
     FM260000 28010KT P6SM SKC=



000
FTUS43 KDTX 250520
TAFFNT
TAF
KFNT 250520Z 2506/2606 22004KT 6SM BR BKN200
     FM250700 22003KT 4SM BR SCT060 BKN200
      TEMPO 2507/2511 BKN060
     FM251100 24011G18KT P6SM OVC012
     FM251600 27015G25KT P6SM BKN018
     FM251900 28014G24KT P6SM SKC
     FM260000 27012KT P6SM SKC=



000
FTUS43 KDTX 250520
TAFDET
TAF
KDET 250520Z 2506/2606 21004KT P6SM SCT060 BKN150
      TEMPO 2508/2512 BKN060
     FM251200 24012KT P6SM SCT012 BKN022
     FM251600 27014G22KT P6SM BKN025
     FM251900 27015G24KT P6SM SKC
     FM260000 28010KT P6SM SKC=



000
FTUS43 KDTX 250520
TAFMBS
TAF
KMBS 250520Z 2506/2606 22004KT 3SM BR SCT060 BKN200
      TEMPO 2507/2511 BKN060
     FM251100 24011G18KT P6SM OVC012
     FM251500 27015G25KT P6SM BKN018
     FM251800 28016G26KT P6SM SKC
     FM260000 27011KT P6SM SKC=



000
FTUS43 KDTX 250520
TAFDTW
TAF
KDTW 250520Z 2506/2612 21004KT 4SM BR SCT060 BKN150
      TEMPO 2508/2512 BKN060
     FM251200 24012KT P6SM SCT012 BKN022
     FM251600 27014G22KT P6SM BKN025
     FM251900 27015G24KT P6SM SKC
     FM260000 28010KT P6SM SKC=



000
FTUS43 KDTX 250234 AAA
TAFMBS
TAF AMD
KMBS 250234Z 2503/2524 22003KT P6SM BKN200
     FM250700 22004KT 3SM BR SCT060 BKN200
     FM251100 24011G18KT P6SM OVC012
     FM251500 27015G25KT P6SM BKN018
     FM251800 28016G26KT P6SM SKC=



000
FTUS43 KDTX 250233 AAA
TAFFNT
TAF AMD
KFNT 250233Z 2503/2524 22004KT P6SM BKN200
     FM250700 22003KT 4SM BR SCT070 BKN200
     FM251200 24011G18KT P6SM OVC012
     FM251600 27015G25KT P6SM BKN018
     FM252000 28014G24KT P6SM SKC=



000
FTUS43 KDTX 250232 AAB
TAFDTW
TAF AMD
KDTW 250232Z 2503/2606 22005KT P6SM BKN200
     FM250800 21004KT 4SM BR SCT070 BKN150
     FM251300 24012KT P6SM OVC016
     FM251600 27014G22KT P6SM BKN022
     FM252000 27015G24KT P6SM SKC
     FM260000 28010KT P6SM SKC=



000
FTUS43 KDTX 250127 AAA
TAFDTW
TAF AMD
KDTW 250127Z 2501/2606 22006KT P6SM OVC040
     FM250200 22005KT P6SM BKN200
     FM250900 21004KT 4SM BR SCT070 BKN150
     FM251300 24012KT P6SM OVC016
     FM251600 27014G22KT P6SM BKN022
     FM252000 27015G24KT P6SM SKC
     FM260000 28010KT P6SM SKC=



000
FTUS43 KDTX 242321
TAFFNT
TAF
KFNT 242321Z 2500/2524 22005KT P6SM BKN045
     FM250200 22004KT P6SM BKN200
     FM250800 22003KT 4SM BR SCT070 BKN200
     FM251200 24011G18KT P6SM OVC012
     FM251600 27015G25KT P6SM BKN018
     FM252000 28014G24KT P6SM SKC=



000
FTUS43 KDTX 242321
TAFDTW
TAF
KDTW 242321Z 2500/2606 22006KT P6SM OVC040
     FM250300 22005KT P6SM BKN200
     FM250900 21004KT 4SM BR SCT070 BKN150
     FM251300 24012KT P6SM OVC016
     FM251600 27014G22KT P6SM BKN022
     FM252000 27015G24KT P6SM SKC
     FM260000 28010KT P6SM SKC=



000
FTUS43 KDTX 242321
TAFMBS
TAF
KMBS 242321Z 2500/2524 22003KT P6SM SCT012 BKN200
     FM250800 22004KT 5SM BR SCT060 BKN200
     FM251100 24011G18KT P6SM OVC012
     FM251500 27015G25KT P6SM BKN018
     FM251800 28016G26KT P6SM SKC=



000
FTUS43 KDTX 242321
TAFDET
TAF
KDET 242321Z 2500/2524 22006KT P6SM OVC040
     FM250300 22005KT P6SM BKN200
     FM250900 21004KT 4SM BR SCT070 BKN150
     FM251300 24012KT P6SM OVC016
     FM251600 27013G20KT P6SM BKN022
     FM252000 27015G22KT P6SM SKC=



000
FTUS43 KDTX 242044 AAA
TAFDTW
TAF AMD
KDTW 242044Z 2421/2524 20009KT P6SM OVC040
     FM250200 23004KT P6SM SCT025 BKN080
     FM251200 24009KT P6SM BKN025 OVC060
     FM251800 27015G24KT P6SM SCT025 BKN100=



000
FTUS43 KDTX 241732
TAFDTW
TAF
KDTW 241732Z 2418/2524 21007KT P6SM BKN045
     FM242000 22008KT P6SM BKN035
     FM250200 23004KT P6SM SCT025 BKN080
     FM251200 24009KT P6SM BKN025 OVC060
     FM251800 27015G24KT P6SM SCT025 BKN100=



000
FTUS43 KDTX 241732
TAFDET
TAF
KDET 241732Z 2418/2518 24007KT P6SM BKN045
     FM242000 23008KT P6SM BKN035
     FM250200 23004KT P6SM SCT025 BKN080
     FM251200 24009KT P6SM BKN025 OVC060=



000
FTUS43 KDTX 241732
TAFFNT
TAF
KFNT 241732Z 2418/2518 23006KT P6SM OVC040
     FM242000 22005KT P6SM BKN025
     FM250200 24003KT P6SM SCT025
     FM250900 23006KT 4SM BR BKN020
     FM251400 27010G18KT 4SM BR OVC015=



000
FTUS43 KDTX 241732
TAFMBS
TAF
KMBS 241732Z 2418/2518 24006KT P6SM BKN025
      TEMPO 2418/2421 OVC035
     FM250200 23006KT P6SM SCT025
     FM250900 23006KT 4SM BR BKN015
     FM251400 26012G20KT 4SM BR OVC012=



000
FTUS43 KDTX 241453 AAB
TAFDTW
TAF AMD
KDTW 241453Z 2415/2518 22004KT P6SM SCT045
     FM241600 23007KT P6SM BKN045
     FM250200 23005KT P6SM SCT025 BKN250
     FM251400 23009KT P6SM BKN025 OVC060=



000
FTUS43 KDTX 241307 AAA
TAFDTW
TAF AMD
KDTW 241307Z 2413/2518 VRB03KT P6SM SCT100 BKN200
      TEMPO 2413/2414 4SM BR
     FM241400 23006KT P6SM SCT080 BKN120
     FM241700 22007KT P6SM BKN045 BKN150
     FM250200 23005KT P6SM SCT025 BKN250
     FM251400 23009KT P6SM BKN025 OVC060=



000
FTUS43 KDTX 241125
TAFDET
TAF
KDET 241125Z 2412/2512 VRB03KT P6SM SCT060 BKN180
      TEMPO 2412/2413 4SM BR
     FM241400 23006KT P6SM SCT040 BKN060 BKN120
     FM241700 22007KT P6SM BKN045 BKN150
     FM250200 23005KT P6SM SCT025 BKN250=



000
FTUS43 KDTX 241125
TAFMBS
TAF
KMBS 241125Z 2412/2512 23006KT P6SM SCT040 OVC060
      TEMPO 2412/2413 4SM BR
     FM241600 24006KT P6SM SCT028 BKN040
     FM250000 23006KT P6SM SCT020
     FM250900 23006KT 4SM BR BKN018=



000
FTUS43 KDTX 241125
TAFFNT
TAF
KFNT 241125Z 2412/2512 23006KT P6SM BKN050 BKN120
      TEMPO 2412/2413 4SM BR
     FM242300 22005KT P6SM SCT024
     FM250900 23006KT 4SM BR BKN018=



000
FTUS43 KDTX 241125
TAFDTW
TAF
KDTW 241125Z 2412/2518 VRB03KT P6SM SCT060 BKN180
      TEMPO 2412/2413 4SM BR
     FM241400 23006KT P6SM SCT040 BKN060 OVC120
     FM241700 22007KT P6SM BKN045 BKN150
     FM250200 23005KT P6SM SCT025 BKN250
     FM251400 23009KT P6SM BKN025 OVC060=



000
FTUS43 KDTX 240830 AAA
TAFDTW
TAF AMD
KDTW 240830Z 2408/2512 VRB02KT P6SM BKN180
      TEMPO 2409/2412 5SM BR
     FM241200 VRB03KT P6SM SCT060 BKN180
     FM241400 23006KT P6SM SCT040 BKN060 OVC120
     FM241700 22007KT P6SM BKN045 BKN150
     FM250200 23005KT P6SM SCT025 BKN250=



000
FTUS43 KDTX 240521
TAFDTW
TAF
KDTW 240521Z 2406/2512 VRB03KT P6SM BKN200
     FM241400 23006KT P6SM SCT040 BKN060 OVC120
     FM241700 22007KT P6SM BKN045 BKN150
     FM250200 23005KT P6SM BKN022=



000
FTUS43 KDTX 240521
TAFDET
TAF
KDET 240521Z 2406/2506 VRB03KT P6SM BKN200
     FM241400 23006KT P6SM SCT040 BKN060 OVC120
     FM241700 22007KT P6SM BKN045 BKN150
     FM250200 23005KT P6SM BKN022=



000
FTUS43 KDTX 240521
TAFFNT
TAF
KFNT 240521Z 2406/2506 VRB03KT P6SM BKN200
     FM241200 23006KT P6SM BKN040 BKN060 OVC120
     FM242200 22005KT P6SM BKN024=



000
FTUS43 KDTX 240521
TAFMBS
TAF
KMBS 240521Z 2406/2506 22004KT P6SM OVC080
     FM241100 23006KT P6SM BKN035 OVC060
     FM241900 24006KT P6SM BKN028
     FM250300 23006KT 4SM BR SCT018=



000
FTUS43 KDTX 240249 AAA
TAFDTW
TAF AMD
KDTW 240249Z 2403/2506 VRB03KT P6SM OVC200
     FM241300 23006KT P6SM SCT028 BKN045 OVC120
     FM242000 22007KT P6SM SCT050 BKN150
     FM250200 23005KT P6SM BKN022=



000
FTUS43 KDTX 240249 AAA
TAFDTW
TAF AMD
KDTW 240249Z 2403/2506 VRB03KT P6SM OVC200
     FM241300 23006KT P6SM SCT028 BKN045 OVC120
     FM242000 22007KT P6SM SCT050 BKN150
     FM250200 23005KT P6SM BKN022=



000
FTUS43 KDTX 232321
TAFDET
TAF
KDET 232321Z 2400/2424 VRB03KT P6SM OVC200
     FM241300 23006KT P6SM SCT028 BKN045 OVC120
     FM242000 22007KT P6SM SCT050 BKN150=



000
FTUS43 KDTX 232321
TAFFNT
TAF
KFNT 232321Z 2400/2424 24003KT P6SM BKN150
     FM241200 23006KT P6SM BKN026 OVC045
     FM241700 24006KT P6SM OVC035=



000
FTUS43 KDTX 232321
TAFDTW
TAF
KDTW 232321Z 2400/2506 VRB03KT P6SM OVC200
     FM241300 23006KT P6SM SCT028 BKN045 OVC120
     FM242000 22007KT P6SM SCT050 BKN150
     FM250200 23005KT P6SM BKN022=



000
FTUS43 KDTX 232321
TAFMBS
TAF
KMBS 232321Z 2400/2424 22004KT P6SM BKN150
     FM240800 21005KT P6SM OVC060
     FM241100 23006KT P6SM BKN026 OVC045
     FM241700 24006KT P6SM OVC035=



000
FTUS43 KDTX 232050 AAA
TAFDTW
TAF AMD
KDTW 232050Z 2321/2424 27005KT P6SM SCT250
     FM240800 21005KT P6SM OVC120
     FM241600 21007KT P6SM BKN025 OVC050
     FM242200 24005KT P6SM OVC035=



000
FTUS43 KDTX 231727
TAFDTW
TAF
KDTW 231727Z 2318/2424 28005KT P6SM FEW035 SCT250
     FM240800 21005KT P6SM OVC120
     FM241600 21007KT P6SM BKN025 OVC050
     FM242200 24005KT P6SM OVC035=



000
FTUS43 KDTX 231727
TAFFNT
TAF
KFNT 231727Z 2318/2418 25005KT P6SM SCT035
     FM240700 21005KT P6SM OVC120
     FM241600 21007KT P6SM BKN025 OVC050=



000
FTUS43 KDTX 231727
TAFDET
TAF
KDET 231727Z 2318/2418 28005KT P6SM FEW035 SCT250
     FM240900 21005KT P6SM OVC120
     FM241600 21007KT P6SM BKN025 OVC050=



000
FTUS43 KDTX 231727
TAFMBS
TAF
KMBS 231727Z 2318/2418 26007KT P6SM BKN015
     FM231900 24007KT P6SM SCT030
     FM240700 21005KT P6SM OVC120
     FM241600 21007KT P6SM BKN025 OVC050=



000
FTUS43 KDTX 231510 AAA
TAFDTW
TAF AMD
KDTW 231510Z 2315/2418 27005KT P6SM SKC
     FM240600 22004KT P6SM BKN120
     FM241100 20006KT P6SM OVC070=



000
FTUS43 KDTX 231500 AAB
TAFMBS
TAF AMD
KMBS 231500Z 2315/2412 27005KT P6SM OVC015
     FM231700 25005KT P6SM SCT030
     FM240400 22004KT P6SM BKN120
     FM240900 20006KT P6SM OVC070=



000
FTUS43 KDTX 231316 AAA
TAFFNT
TAF AMD
KFNT 231316Z 2313/2412 VRB03KT 1/2SM FG VV002
     FM231400 VRB03KT 3SM BR SCT007
     FM231500 26005KT P6SM SKC
     FM240400 22004KT P6SM BKN120
     FM240900 20006KT P6SM OVC070=



000
FTUS43 KDTX 231314 AAA
TAFMBS
TAF AMD
KMBS 231314Z 2313/2412 VRB03KT 1/2SM FG VV001
     FM231400 VRB03KT 3SM BR SCT007
     FM231500 26005KT P6SM SKC
     FM240400 22004KT P6SM BKN120
     FM240900 20006KT P6SM OVC070=



000
FTUS43 KDTX 231134
TAFFNT
TAF
KFNT 231134Z 2312/2412 00000KT 1/2SM FG BKN001
     FM231300 00000KT 2SM BR SCT002
     FM231400 26005KT P6SM SKC
     FM240400 22004KT P6SM BKN120
     FM240900 20006KT P6SM OVC070=



000
FTUS43 KDTX 231134
TAFMBS
TAF
KMBS 231134Z 2312/2412 00000KT 1/2SM FG BKN001
     FM231300 00000KT 2SM BR SCT002
     FM231400 26005KT P6SM SKC
     FM240400 22004KT P6SM BKN120
     FM240900 20006KT P6SM OVC070=



000
FTUS43 KDTX 231134
TAFDET
TAF
KDET 231134Z 2312/2412 VRB05KT P6SM SKC
     FM240600 22004KT P6SM BKN120
     FM241100 20006KT P6SM OVC070=



000
FTUS43 KDTX 231134
TAFDTW
TAF
KDTW 231134Z 2312/2418 VRB05KT P6SM SKC
     FM240600 22004KT P6SM BKN120
     FM241100 20006KT P6SM OVC070=



000
FTUS43 KDTX 231047 AAA
TAFDET
TAF AMD
KDET 231047Z 2311/2406 VRB05KT P6SM SKC=



000
FTUS43 KDTX 231047 AAB
TAFDTW
TAF AMD
KDTW 231047Z 2311/2412 VRB05KT P6SM SKC
     FM240800 24006KT P6SM OVC060=



000
FTUS43 KDTX 230952 AAA
TAFMBS
TAF AMD
KMBS 230952Z 2310/2406 00000KT 1/4SM FG VV002
     FM231200 00000KT 1SM BR SCT001
     FM231400 24005KT P6SM SKC=



000
FTUS43 KDTX 230952 AAA
TAFMBS
TAF AMD
KMBS 230952Z 2310/2406 00000KT 1/4SM FG VV002
     FM231200 00000KT 1SM BR SCT001
     FM231400 24005KT P6SM SKC=



000
FTUS43 KDTX 230951 AAA
TAFFNT
TAF AMD
KFNT 230951Z 2310/2406 VRB03KT 1/4SM FG VV001
     FM231200 00000KT 1SM BR SCT001
     FM231400 26005KT P6SM SKC=



000
FTUS43 KDTX 230951 AAA
TAFFNT
TAF AMD
KFNT 230951Z 2310/2406 VRB03KT 1/4SM FG VV001
     FM231200 00000KT 1SM BR SCT001
     FM231400 26005KT P6SM SKC=



000
FTUS43 KDTX 230859 AAA
TAFDTW
TAF AMD
KDTW 230859Z 2309/2412 36003KT P6SM SKC
     FM231000 VRB03KT 5SM BR SKC
     FM231400 VRB05KT P6SM SKC
     FM240800 24006KT P6SM OVC060=



000
FTUS43 KDTX 230520
TAFDTW
TAF
KDTW 230520Z 2306/2412 36003KT P6SM SKC
     FM231000 VRB03KT 5SM BR SKC
     FM231400 VRB05KT P6SM SKC
     FM240800 24006KT P6SM OVC060=



000
FTUS43 KDTX 230520
TAFDET
TAF
KDET 230520Z 2306/2406 02005KT P6SM SKC
     FM231000 VRB03KT 6SM BR SKC
     FM231400 VRB05KT P6SM SKC=



000
FTUS43 KDTX 230520
TAFFNT
TAF
KFNT 230520Z 2306/2406 01003KT P6SM SKC
     FM230900 VRB03KT 5SM BR SKC
     FM231100 00000KT 1SM BR SKC
     FM231400 26005KT P6SM SKC=



000
FTUS43 KDTX 230520
TAFMBS
TAF
KMBS 230520Z 2306/2406 VRB03KT P6SM SKC
     FM230900 VRB03KT 4SM BR SKC
     FM231000 00000KT 2SM BR SCT004
     FM231400 24005KT P6SM SKC=



000
FTUS43 KDTX 230220 AAA
TAFDTW
TAF AMD
KDTW 230220Z 2302/2406 34005KT P6SM SKC
     FM231000 34003KT 5SM BR SKC
     FM231400 VRB05KT P6SM SKC=



000
FTUS43 KDTX 230220 AAA
TAFDTW
TAF AMD
KDTW 230220Z 2302/2406 34005KT P6SM SKC
     FM231000 34003KT 5SM BR SKC
     FM231400 VRB05KT P6SM SKC=



    US Dept of Commerce
    National Oceanic and Atmospheric Administration
    National Weather Service
    1325 East West Highway
    Silver Spring, MD 20910
    Page Author: NWS Internet Services Team
Disclaimer
Information Quality
Credits
Glossary
Privacy Policy
Freedom of Information Act (FOIA)
About Us
Career Opportunities